Time;durP1;ratioP1;P1;durP2;ratioP2;P2;SDS_P1;SDS_P2;PMS_P1;PMS_P2;Temp;Humidity;BMP_temperature;BMP_pressure;BME280_temperature;BME280_humidity;BME280_pressure;Samples;Min_cycle;Max_cycle;Signal;HPM_P1;HPM_P2
2022/02/21 00:00:18;;;;;;;14.02;7.07;;;3.90;74.40;;;;;;5055210;28;20033;-85
2022/02/21 00:02:48;;;;;;;14.82;7.35;;;3.80;74.50;;;;;;5054937;28;20025;-84
2022/02/21 00:05:15;;;;;;;12.70;7.03;;;3.80;74.60;;;;;;5053979;28;20036;-84
2022/02/21 00:07:44;;;;;;;12.32;6.93;;;3.70;74.60;;;;;;5053814;28;20029;-84
2022/02/21 00:10:11;;;;;;;13.93;6.95;;;3.70;74.80;;;;;;5053273;28;20024;-84
2022/02/21 00:12:38;;;;;;;12.95;7.22;;;3.70;75.00;;;;;;5054996;28;20094;-85
2022/02/21 00:15:05;;;;;;;13.00;6.90;;;3.70;75.10;;;;;;5054603;28;20025;-85
2022/02/21 00:17:31;;;;;;;13.25;6.97;;;3.70;75.20;;;;;;5054315;28;20043;-85
2022/02/21 00:19:56;;;;;;;14.07;7.20;;;3.70;75.10;;;;;;5054191;28;20439;-86
2022/02/21 00:22:22;;;;;;;13.57;7.50;;;3.70;75.10;;;;;;5054389;28;20103;-85
2022/02/21 00:24:48;;;;;;;12.65;7.00;;;3.70;75.20;;;;;;5054953;28;20025;-85
2022/02/21 00:27:14;;;;;;;13.40;7.10;;;3.70;75.10;;;;;;5056489;28;20040;-84
2022/02/21 00:29:39;;;;;;;12.23;6.43;;;3.70;75.20;;;;;;5056987;28;20029;-84
2022/02/21 00:32:06;;;;;;;12.50;6.20;;;3.70;75.10;;;;;;5054679;28;20101;-85
2022/02/21 00:34:32;;;;;;;9.93;5.90;;;3.60;75.00;;;;;;5053050;28;20158;-85
2022/02/21 00:36:57;;;;;;;12.75;6.40;;;3.70;75.10;;;;;;5053032;28;20079;-86
2022/02/21 00:39:23;;;;;;;14.07;6.50;;;3.70;75.20;;;;;;5052693;28;20050;-84
2022/02/21 00:41:49;;;;;;;12.50;6.50;;;3.70;75.10;;;;;;5054331;28;20031;-85
2022/02/21 00:44:15;;;;;;;15.50;7.25;;;3.70;75.20;;;;;;5053614;28;20115;-85
2022/02/21 00:46:41;;;;;;;14.00;7.40;;;3.70;75.30;;;;;;5054894;28;20499;-85
2022/02/21 00:49:06;;;;;;;14.90;7.13;;;3.70;75.20;;;;;;5052961;28;20017;-83
2022/02/21 00:51:32;;;;;;;14.55;7.40;;;3.70;75.10;;;;;;5054140;28;20025;-85
2022/02/21 00:53:58;;;;;;;16.85;8.00;;;3.60;75.00;;;;;;5053853;28;20026;-83
2022/02/21 00:56:24;;;;;;;16.95;7.82;;;3.60;75.10;;;;;;5054044;28;20033;-84
2022/02/21 00:58:49;;;;;;;16.02;7.85;;;3.50;74.90;;;;;;5053879;28;20463;-85
2022/02/21 01:01:15;;;;;;;14.90;6.90;;;3.40;75.00;;;;;;5053235;28;20021;-84
2022/02/21 01:03:42;;;;;;;19.63;8.55;;;3.30;75.10;;;;;;5055766;28;20036;-84
2022/02/21 01:06:07;;;;;;;15.82;8.05;;;3.20;75.50;;;;;;5053635;28;20045;-84
2022/02/21 01:08:33;;;;;;;21.25;8.63;;;3.20;76.40;;;;;;5054314;28;20372;-84
2022/02/21 01:10:59;;;;;;;19.45;7.97;;;3.10;76.40;;;;;;5051810;28;20443;-83
2022/02/21 01:13:25;;;;;;;14.10;6.82;;;3.10;76.40;;;;;;5053854;28;20029;-84
2022/02/21 01:15:53;;;;;;;12.00;6.68;;;3.00;76.30;;;;;;5052531;28;20104;-84
2022/02/21 01:18:19;;;;;;;12.48;6.30;;;3.00;76.40;;;;;;5053368;28;20028;-85
2022/02/21 01:20:45;;;;;;;12.70;6.32;;;2.90;76.40;;;;;;5052446;28;20477;-84
2022/02/21 01:23:10;;;;;;;10.73;5.75;;;2.90;77.00;;;;;;5052294;28;20049;-83
2022/02/21 01:25:36;;;;;;;11.48;6.05;;;2.80;77.20;;;;;;5052136;28;20112;-83
2022/02/21 01:28:02;;;;;;;11.48;5.55;;;2.80;77.10;;;;;;5052301;28;20467;-83
2022/02/21 01:30:28;;;;;;;11.00;6.28;;;2.80;77.50;;;;;;5052473;28;20098;-84
2022/02/21 01:32:53;;;;;;;9.73;5.20;;;2.80;77.60;;;;;;5053939;28;20029;-84
2022/02/21 01:35:20;;;;;;;13.30;6.45;;;2.80;77.70;;;;;;5052360;28;20021;-84
2022/02/21 01:37:46;;;;;;;12.77;5.78;;;2.70;78.20;;;;;;5052264;28;20098;-83
2022/02/21 01:40:12;;;;;;;12.23;5.90;;;2.70;78.70;;;;;;5054042;28;20025;-84
2022/02/21 01:42:39;;;;;;;12.93;6.63;;;2.70;78.70;;;;;;5052703;28;20362;-85
2022/02/21 01:45:06;;;;;;;9.93;6.13;;;2.70;79.20;;;;;;5053210;28;20061;-83
2022/02/21 01:47:32;;;;;;;11.02;5.55;;;2.70;79.40;;;;;;5052552;28;20362;-84
2022/02/21 01:49:58;;;;;;;14.23;6.40;;;2.70;79.20;;;;;;5054267;28;20025;-85
2022/02/21 01:52:23;;;;;;;12.15;5.35;;;2.70;79.50;;;;;;5052358;28;20168;-83
2022/02/21 01:54:50;;;;;;;12.45;5.75;;;2.70;79.60;;;;;;5052371;28;20036;-84
2022/02/21 01:57:16;;;;;;;10.30;5.25;;;2.70;80.10;;;;;;5055101;28;20056;-84
2022/02/21 01:59:42;;;;;;;10.40;5.38;;;2.80;80.00;;;;;;5054404;28;20398;-84
2022/02/21 02:02:08;;;;;;;10.23;5.72;;;2.80;80.00;;;;;;5055076;28;20043;-84
2022/02/21 02:04:35;;;;;;;10.93;5.22;;;2.80;80.00;;;;;;5052435;28;20064;-85
2022/02/21 02:07:02;;;;;;;12.27;5.63;;;2.90;80.20;;;;;;5052338;28;20104;-83
2022/02/21 02:09:28;;;;;;;10.93;5.50;;;2.90;80.20;;;;;;5053498;28;20031;-83
2022/02/21 02:11:54;;;;;;;12.50;5.43;;;2.90;80.20;;;;;;5053410;28;20033;-83
2022/02/21 02:14:27;;;;;;;11.57;5.68;;;2.90;80.10;;;;;;5051327;28;20036;-83
2022/02/21 02:16:53;;;;;;;11.25;5.30;;;2.90;80.40;;;;;;5052167;28;20060;-84
2022/02/21 02:19:19;;;;;;;9.10;4.72;;;2.80;80.10;;;;;;5051732;28;20049;-84
2022/02/21 02:21:47;;;;;;;10.02;5.00;;;2.80;80.20;;;;;;5053969;28;20029;-84
2022/02/21 02:24:13;;;;;;;9.65;4.97;;;2.80;80.20;;;;;;5056677;28;20095;-84
2022/02/21 02:26:40;;;;;;;8.65;5.20;;;2.80;80.40;;;;;;5055769;28;20033;-84
2022/02/21 02:29:06;;;;;;;9.07;4.78;;;2.80;80.50;;;;;;5056874;28;20062;-84
2022/02/21 02:31:32;;;;;;;8.68;4.75;;;2.80;80.70;;;;;;5055316;28;20021;-84
2022/02/21 02:33:58;;;;;;;9.93;4.78;;;2.70;80.80;;;;;;5056775;28;20451;-83
2022/02/21 02:36:23;;;;;;;10.13;4.65;;;2.70;80.80;;;;;;5057350;28;20035;-83
2022/02/21 02:38:49;;;;;;;7.88;4.03;;;2.70;80.90;;;;;;5056326;28;20026;-84
2022/02/21 02:41:15;;;;;;;8.18;4.35;;;2.60;81.00;;;;;;5056263;28;20027;-84
2022/02/21 02:43:40;;;;;;;8.00;4.32;;;2.50;81.20;;;;;;5056774;28;20336;-83
2022/02/21 02:46:07;;;;;;;7.28;3.95;;;2.50;81.30;;;;;;5056692;28;20040;-83
2022/02/21 02:48:33;;;;;;;8.68;4.05;;;2.50;81.40;;;;;;5055939;28;20052;-85
2022/02/21 02:50:59;;;;;;;7.88;4.18;;;2.40;81.60;;;;;;5055830;28;20025;-84
2022/02/21 02:53:25;;;;;;;9.07;5.18;;;2.40;81.80;;;;;;5056169;28;20036;-84
2022/02/21 02:55:51;;;;;;;9.20;4.55;;;2.40;82.30;;;;;;5055061;28;20447;-84
2022/02/21 02:58:17;;;;;;;10.27;4.50;;;2.40;82.10;;;;;;5056980;28;20417;-84
2022/02/21 03:00:42;;;;;;;8.32;3.80;;;2.40;82.10;;;;;;5056863;28;20031;-84
2022/02/21 03:03:08;;;;;;;22.83;12.68;;;2.30;81.90;;;;;;5056452;28;20060;-83
2022/02/21 03:05:34;;;;;;;29.35;16.15;;;2.20;82.10;;;;;;5056854;28;20136;-84
2022/02/21 03:07:59;;;;;;;22.42;12.13;;;2.10;82.50;;;;;;5056098;28;20021;-84
2022/02/21 03:10:25;;;;;;;22.48;11.27;;;2.00;82.70;;;;;;5055099;28;20489;-84
2022/02/21 03:12:51;;;;;;;24.20;14.13;;;1.90;83.10;;;;;;5055017;28;20422;-84
2022/02/21 03:15:16;;;;;;;32.40;17.75;;;1.90;84.80;;;;;;5054402;28;20037;-84
2022/02/21 03:17:42;;;;;;;31.10;18.67;;;1.80;85.10;;;;;;5054849;28;20021;-84
2022/02/21 03:20:09;;;;;;;38.15;20.88;;;1.80;84.60;;;;;;5055482;28;20028;-83
2022/02/21 03:22:35;;;;;;;39.15;20.45;;;1.70;84.50;;;;;;5054362;28;20382;-84
2022/02/21 03:25:01;;;;;;;37.33;19.95;;;1.70;84.80;;;;;;5054578;28;20032;-84
2022/02/21 03:27:26;;;;;;;35.35;19.17;;;1.60;85.50;;;;;;5055862;28;20024;-84
2022/02/21 03:29:52;;;;;;;26.27;14.30;;;1.60;86.60;;;;;;5056393;28;20024;-84
2022/02/21 03:32:18;;;;;;;24.63;12.95;;;1.60;87.80;;;;;;5054755;28;20486;-84
2022/02/21 03:34:44;;;;;;;28.15;12.85;;;1.60;88.10;;;;;;5056076;28;20029;-84
2022/02/21 03:37:09;;;;;;;20.50;11.18;;;1.60;88.30;;;;;;5056468;28;20497;-84
2022/02/21 03:39:35;;;;;;;29.33;13.40;;;1.60;88.50;;;;;;5055445;28;20500;-84
2022/02/21 03:42:01;;;;;;;24.35;11.32;;;1.60;89.00;;;;;;5055577;28;20501;-84
2022/02/21 03:44:26;;;;;;;21.88;10.48;;;1.60;89.40;;;;;;5056017;28;20473;-84
2022/02/21 03:46:52;;;;;;;19.95;8.85;;;1.60;89.30;;;;;;5058111;28;20021;-85
2022/02/21 03:49:18;;;;;;;20.35;9.35;;;1.60;89.80;;;;;;5056220;28;20021;-84
2022/02/21 03:51:44;;;;;;;15.60;8.68;;;1.70;90.20;;;;;;5055157;28;20029;-84
2022/02/21 03:54:09;;;;;;;18.35;8.63;;;1.70;90.50;;;;;;5054020;28;20057;-84
2022/02/21 03:56:35;;;;;;;16.20;7.60;;;1.70;90.50;;;;;;5054457;28;20040;-84
2022/02/21 03:59:01;;;;;;;13.68;7.18;;;1.70;90.30;;;;;;5055546;28;20032;-84
2022/02/21 04:01:27;;;;;;;13.27;6.43;;;1.60;90.50;;;;;;5054093;28;20017;-83
2022/02/21 04:03:53;;;;;;;14.20;7.30;;;1.60;90.50;;;;;;5055837;28;20028;-84
2022/02/21 04:06:19;;;;;;;14.32;7.70;;;1.60;91.00;;;;;;5054419;28;20024;-84
2022/02/21 04:08:44;;;;;;;13.55;6.80;;;1.60;91.30;;;;;;5056392;28;20029;-84
2022/02/21 04:11:10;;;;;;;14.88;7.85;;;1.50;91.40;;;;;;5055934;28;20411;-83
2022/02/21 04:13:36;;;;;;;16.17;7.93;;;1.50;92.00;;;;;;5056798;28;20117;-84
2022/02/21 04:16:01;;;;;;;17.33;8.43;;;1.40;92.20;;;;;;5053758;28;20029;-85
2022/02/21 04:18:27;;;;;;;16.58;8.43;;;1.40;92.20;;;;;;5054488;28;20082;-85
2022/02/21 04:20:53;;;;;;;19.60;9.98;;;1.40;92.40;;;;;;5054225;28;20143;-85
2022/02/21 04:23:18;;;;;;;16.75;9.45;;;1.40;92.50;;;;;;5055028;28;20041;-84
2022/02/21 04:25:45;;;;;;;13.75;7.68;;;1.40;92.80;;;;;;5055849;28;20435;-84
2022/02/21 04:28:10;;;;;;;13.80;8.23;;;1.40;93.00;;;;;;5055420;28;20046;-85
2022/02/21 04:30:37;;;;;;;20.85;9.88;;;1.30;92.90;;;;;;5055071;28;20021;-84
2022/02/21 04:33:03;;;;;;;18.33;9.48;;;1.30;93.40;;;;;;5053461;28;20116;-85
2022/02/21 04:35:29;;;;;;;20.70;9.50;;;1.30;94.10;;;;;;5053417;28;20416;-86
2022/02/21 04:37:55;;;;;;;21.27;10.45;;;1.30;94.30;;;;;;5057888;28;20088;-86
2022/02/21 04:40:26;;;;;;;21.10;10.07;;;1.20;94.40;;;;;;5055748;28;20118;-86
2022/02/21 04:42:55;;;;;;;18.90;9.13;;;1.20;94.40;;;;;;5053570;28;20028;-86
2022/02/21 04:45:22;;;;;;;21.65;10.05;;;1.20;94.30;;;;;;5053826;28;20075;-86
2022/02/21 04:47:49;;;;;;;26.70;12.00;;;1.20;94.50;;;;;;5054043;28;20027;-85
2022/02/21 04:50:15;;;;;;;23.33;11.10;;;1.20;95.70;;;;;;5053505;28;20504;-86
2022/02/21 04:52:42;;;;;;;21.02;10.18;;;1.20;95.30;;;;;;5069761;28;20060;-85
2022/02/21 04:55:09;;;;;;;20.95;9.65;;;1.20;95.10;;;;;;5053389;28;20339;-86
2022/02/21 04:57:35;;;;;;;19.50;9.25;;;1.20;95.70;;;;;;5052928;28;20032;-84
2022/02/21 05:00:06;;;;;;;21.25;9.40;;;1.20;95.50;;;;;;5054065;28;20363;-85
2022/02/21 05:02:31;;;;;;;22.90;10.07;;;1.20;95.50;;;;;;5054202;28;20023;-83
2022/02/21 05:04:57;;;;;;;18.50;9.40;;;1.10;96.00;;;;;;5054652;28;20028;-83
2022/02/21 05:07:26;;;;;;;16.23;8.18;;;1.20;96.30;;;;;;5053482;28;20056;-82
2022/02/21 05:09:52;;;;;;;18.75;9.45;;;1.10;96.30;;;;;;5053989;28;20021;-82
2022/02/21 05:12:17;;;;;;;15.80;8.05;;;1.10;96.90;;;;;;5052973;28;20116;-81
2022/02/21 05:14:43;;;;;;;20.77;9.20;;;1.10;96.70;;;;;;5054193;28;20067;-81
2022/02/21 05:17:09;;;;;;;19.27;9.60;;;1.20;96.80;;;;;;5052641;28;20024;-83
2022/02/21 05:19:34;;;;;;;20.33;10.32;;;1.20;96.90;;;;;;5055309;28;20028;-81
2022/02/21 05:22:00;;;;;;;22.80;10.57;;;1.20;96.80;;;;;;5052992;28;20028;-88
2022/02/21 05:24:26;;;;;;;25.08;13.20;;;1.20;96.70;;;;;;5053160;28;20025;-87
2022/02/21 05:26:52;;;;;;;28.30;13.98;;;1.20;96.90;;;;;;5052702;28;20454;-82
2022/02/21 05:29:18;;;;;;;28.20;14.63;;;1.30;97.10;;;;;;5052817;28;20431;-88
2022/02/21 05:31:46;;;;;;;26.73;14.88;;;1.30;97.10;;;;;;5052598;28;20448;-84
2022/02/21 05:34:13;;;;;;;24.80;13.57;;;1.30;97.30;;;;;;5054124;28;20036;-86
2022/02/21 05:36:44;;;;;;;20.48;11.63;;;1.30;97.30;;;;;;5052228;28;20053;-85
2022/02/21 05:39:11;;;;;;;23.13;12.63;;;1.30;97.20;;;;;;5053811;28;20021;-86
2022/02/21 05:41:36;;;;;;;22.60;10.60;;;1.40;98.10;;;;;;5053269;28;20054;-86
2022/02/21 05:44:03;;;;;;;24.73;10.88;;;1.40;98.10;;;;;;5052775;28;20031;-86
2022/02/21 05:46:29;;;;;;;22.17;10.73;;;1.50;97.90;;;;;;5051861;28;20025;-84
2022/02/21 05:48:55;;;;;;;26.45;11.77;;;1.60;98.00;;;;;;5051682;28;20060;-84
2022/02/21 05:51:20;;;;;;;24.63;11.63;;;1.60;97.60;;;;;;5052166;28;20021;-86
2022/02/21 05:53:47;;;;;;;19.45;9.70;;;1.70;97.50;;;;;;5054758;28;20029;-87
2022/02/21 05:56:14;;;;;;;15.60;8.00;;;1.90;97.20;;;;;;5054310;28;20029;-84
2022/02/21 05:58:40;;;;;;;18.80;8.27;;;2.00;97.00;;;;;;5056994;28;20029;-83
2022/02/21 06:01:06;;;;;;;15.07;8.75;;;2.10;96.80;;;;;;5057257;28;20021;-81
2022/02/21 06:03:32;;;;;;;14.82;7.75;;;2.30;96.40;;;;;;5055653;28;20097;-78
2022/02/21 06:05:57;;;;;;;14.57;7.47;;;2.40;96.00;;;;;;5055500;28;20072;-80
2022/02/21 06:08:23;;;;;;;21.00;8.63;;;2.60;95.30;;;;;;5055717;28;20108;-79
2022/02/21 06:10:50;;;;;;;15.02;8.20;;;2.70;94.40;;;;;;5055609;28;20020;-79
2022/02/21 06:13:16;;;;;;;20.25;9.55;;;2.80;93.60;;;;;;5055552;28;20028;-79
2022/02/21 06:15:44;;;;;;;19.90;10.05;;;2.80;92.60;;;;;;5055409;28;20028;-81
2022/02/21 06:18:13;;;;;;;17.10;9.25;;;2.90;92.30;;;;;;5055211;28;20386;-81
2022/02/21 06:20:39;;;;;;;19.08;8.80;;;2.80;92.30;;;;;;5035468;28;20139;-80
2022/02/21 06:23:04;;;;;;;18.60;9.30;;;2.80;92.50;;;;;;5036798;28;20393;-80
2022/02/21 06:25:30;;;;;;;20.58;9.90;;;2.90;92.80;;;;;;5052220;28;20340;-79
2022/02/21 06:27:56;;;;;;;17.67;9.65;;;3.00;93.00;;;;;;5036669;28;20028;-81
2022/02/21 06:30:21;;;;;;;17.60;8.98;;;3.10;92.60;;;;;;5035754;28;20022;-82
2022/02/21 06:32:47;;;;;;;20.73;9.02;;;3.30;92.10;;;;;;5052052;28;20018;-81
2022/02/21 06:35:14;;;;;;;134.52;54.55;;;3.40;91.60;;;;;;5035280;28;20037;-82
2022/02/21 06:37:46;;;;;;;106.30;48.55;;;3.50;91.20;;;;;;5035975;28;20082;-82
2022/02/21 06:40:13;;;;;;;49.38;22.75;;;3.70;90.70;;;;;;5035904;28;20044;-80
2022/02/21 06:42:39;;;;;;;24.60;13.70;;;3.80;90.00;;;;;;5036782;28;20033;-80
2022/02/21 06:45:05;;;;;;;22.27;10.65;;;4.00;88.30;;;;;;5036331;28;20033;-80
2022/02/21 06:47:31;;;;;;;17.60;9.20;;;4.00;87.30;;;;;;5035064;28;20464;-80
2022/02/21 06:49:57;;;;;;;17.27;9.10;;;4.10;85.70;;;;;;5036245;28;20025;-80
2022/02/21 06:52:23;;;;;;;19.58;8.77;;;4.10;86.00;;;;;;5051860;28;20025;-78
2022/02/21 06:54:52;;;;;;;12.57;7.75;;;4.10;85.70;;;;;;5036047;28;20041;-79
2022/02/21 06:57:22;;;;;;;14.95;8.50;;;4.20;85.00;;;;;;5036345;28;20036;-78
2022/02/21 06:59:48;;;;;;;17.35;8.70;;;4.30;84.20;;;;;;5035189;28;20056;-80
2022/02/21 07:02:14;;;;;;;17.55;9.90;;;4.30;83.70;;;;;;5051804;28;20108;-80
2022/02/21 07:04:39;;;;;;;21.27;10.57;;;4.30;83.60;;;;;;5052064;28;20523;-79
2022/02/21 07:07:05;;;;;;;17.23;9.93;;;4.40;83.30;;;;;;5035780;28;20099;-79
2022/02/21 07:09:31;;;;;;;19.02;9.85;;;4.40;82.90;;;;;;5039409;28;20043;-80
2022/02/21 07:11:56;;;;;;;18.05;9.75;;;4.40;82.60;;;;;;5055823;28;20104;-81
2022/02/21 07:14:23;;;;;;;16.55;8.77;;;4.50;82.40;;;;;;5055638;28;20386;-80
2022/02/21 07:16:49;;;;;;;15.40;8.93;;;4.50;82.60;;;;;;5054052;28;20029;-80
2022/02/21 07:19:15;;;;;;;16.48;9.02;;;4.60;83.30;;;;;;5055863;28;20111;-79
2022/02/21 07:21:43;;;;;;;22.52;8.88;;;4.80;84.50;;;;;;5054580;28;20113;-79
2022/02/21 07:24:10;;;;;;;28.02;16.20;;;5.10;85.50;;;;;;5056418;28;20367;-80
2022/02/21 07:26:35;;;;;;;30.92;15.63;;;5.50;84.90;;;;;;5070547;28;20017;-82
2022/02/21 07:29:01;;;;;;;20.38;11.23;;;5.90;84.00;;;;;;5054506;28;20040;-80
2022/02/21 07:31:27;;;;;;;17.40;8.98;;;6.40;81.50;;;;;;5055302;28;20037;-79
2022/02/21 07:33:53;;;;;;;14.30;8.13;;;6.80;78.70;;;;;;5054737;28;20024;-77
2022/02/21 07:36:18;;;;;;;12.57;7.30;;;7.10;76.80;;;;;;5055611;28;20517;-79
2022/02/21 07:38:44;;;;;;;15.30;7.85;;;7.30;76.00;;;;;;5057637;28;20498;-78
2022/02/21 07:41:10;;;;;;;16.27;9.07;;;7.70;75.90;;;;;;5053696;28;20051;-79
2022/02/21 07:43:36;;;;;;;14.88;8.23;;;8.00;73.30;;;;;;5055162;28;20372;-78
2022/02/21 07:46:02;;;;;;;14.82;7.10;;;8.20;71.70;;;;;;5055138;28;20031;-81
2022/02/21 07:48:28;;;;;;;12.70;6.38;;;8.60;69.40;;;;;;5055087;28;20032;-83
2022/02/21 07:50:54;;;;;;;11.68;5.78;;;8.80;68.40;;;;;;5053829;28;20029;-83
2022/02/21 07:53:23;;;;;;;10.05;5.97;;;8.90;66.80;;;;;;5054674;28;20387;-81
2022/02/21 07:55:50;;;;;;;11.25;6.03;;;8.90;65.90;;;;;;5053636;28;20112;-81
2022/02/21 07:58:16;;;;;;;13.60;6.28;;;9.10;65.70;;;;;;5054838;28;20447;-81
2022/02/21 08:00:42;;;;;;;11.70;5.63;;;9.30;63.00;;;;;;5039064;28;20017;-80
2022/02/21 08:03:07;;;;;;;12.07;6.18;;;9.40;63.60;;;;;;5035283;28;20047;-81
2022/02/21 08:05:36;;;;;;;9.88;5.55;;;9.40;64.00;;;;;;5034967;28;20444;-81
2022/02/21 08:08:05;;;;;;;9.60;5.60;;;9.60;63.60;;;;;;5035004;28;20378;-81
2022/02/21 08:10:31;;;;;;;11.18;5.97;;;9.90;62.60;;;;;;5037004;28;20032;-82
2022/02/21 08:12:57;;;;;;;11.43;6.05;;;10.10;62.00;;;;;;5033824;28;20449;-82
2022/02/21 08:15:23;;;;;;;12.48;6.07;;;10.30;61.00;;;;;;5050063;28;20086;-83
2022/02/21 08:17:49;;;;;;;10.02;5.63;;;10.50;59.80;;;;;;5050291;28;20022;-81
2022/02/21 08:20:24;;;;;;;9.95;5.68;;;10.60;59.40;;;;;;5033900;28;20029;-81
2022/02/21 08:22:50;;;;;;;14.50;6.30;;;10.80;58.80;;;;;;5034009;28;20056;-82
2022/02/21 08:25:16;;;;;;;10.68;6.18;;;10.90;58.50;;;;;;5034673;28;20117;-82
2022/02/21 08:27:43;;;;;;;10.35;6.03;;;11.10;57.30;;;;;;5034675;28;20144;-82
2022/02/21 08:30:15;;;;;;;10.38;5.70;;;11.10;57.60;;;;;;5034588;28;20104;-82
2022/02/21 08:32:42;;;;;;;223.55;135.60;;;11.30;57.30;;;;;;5037207;28;20032;-79
2022/02/21 08:35:08;;;;;;;66.10;41.70;;;11.30;57.40;;;;;;5035127;28;20448;-81
2022/02/21 08:37:34;;;;;;;26.27;16.50;;;11.60;57.10;;;;;;5054481;28;20068;-82
2022/02/21 08:40:00;;;;;;;14.68;8.30;;;11.90;56.30;;;;;;5036882;28;20380;-77
2022/02/21 08:42:26;;;;;;;9.88;6.00;;;12.10;55.80;;;;;;5034188;28;20486;-80
2022/02/21 08:44:52;;;;;;;10.82;5.75;;;12.30;54.10;;;;;;5033071;28;20083;-80
2022/02/21 08:47:17;;;;;;;9.90;4.95;;;12.40;53.20;;;;;;5034588;28;20020;-80
2022/02/21 08:49:44;;;;;;;12.20;5.03;;;12.40;52.40;;;;;;5033018;28;20021;-79
2022/02/21 08:52:10;;;;;;;9.73;5.15;;;12.40;53.40;;;;;;5049939;28;20471;-79
2022/02/21 08:54:36;;;;;;;12.05;5.75;;;12.50;53.50;;;;;;5034210;28;20025;-80
2022/02/21 08:57:06;;;;;;;10.82;5.50;;;12.80;52.40;;;;;;5033129;28;20025;-80
2022/02/21 08:59:32;;;;;;;9.38;5.00;;;12.80;52.10;;;;;;5030671;28;20024;-80
2022/02/21 09:01:58;;;;;;;11.15;5.13;;;12.90;52.00;;;;;;5031966;28;20448;-80
2022/02/21 09:04:24;;;;;;;9.38;5.28;;;13.10;51.60;;;;;;5032598;28;20036;-80
2022/02/21 09:06:50;;;;;;;9.65;4.88;;;13.20;50.80;;;;;;5032229;28;20029;-80
2022/02/21 09:09:18;;;;;;;7.40;4.18;;;13.20;50.70;;;;;;5030869;28;20456;-80
2022/02/21 09:11:44;;;;;;;9.27;4.35;;;13.30;50.10;;;;;;5032353;28;20118;-79
2022/02/21 09:14:10;;;;;;;8.15;3.95;;;13.30;50.20;;;;;;5049414;28;20029;-79
2022/02/21 09:16:36;;;;;;;8.90;4.45;;;13.50;49.30;;;;;;5033628;28;20032;-79
2022/02/21 09:19:03;;;;;;;10.30;4.43;;;13.60;49.10;;;;;;5033985;28;20096;-80
2022/02/21 09:21:28;;;;;;;9.50;4.40;;;13.80;49.10;;;;;;5032744;28;20091;-79
2022/02/21 09:23:54;;;;;;;9.80;4.05;;;14.00;48.30;;;;;;5033976;28;20475;-80
2022/02/21 09:26:20;;;;;;;12.15;4.97;;;14.10;48.10;;;;;;5032442;28;20026;-80
2022/02/21 09:28:46;;;;;;;10.63;4.70;;;14.20;48.40;;;;;;5032492;28;20021;-80
2022/02/21 09:31:12;;;;;;;8.05;4.10;;;14.30;47.60;;;;;;5032971;28;20100;-81
2022/02/21 09:33:38;;;;;;;7.90;4.28;;;14.30;46.90;;;;;;5032138;28;20150;-79
2022/02/21 09:36:04;;;;;;;9.90;4.55;;;14.00;47.00;;;;;;5033487;28;20029;-79
2022/02/21 09:38:30;;;;;;;8.65;4.13;;;13.70;47.50;;;;;;5032535;28;20021;-80
2022/02/21 09:40:56;;;;;;;9.57;4.18;;;13.60;48.10;;;;;;5032198;28;20028;-80
2022/02/21 09:43:26;;;;;;;7.43;3.72;;;13.50;47.90;;;;;;5033498;28;20029;-80
2022/02/21 09:46:03;;;;;;;7.32;3.55;;;13.20;48.20;;;;;;5033531;28;20053;-80
2022/02/21 09:48:30;;;;;;;7.47;3.60;;;13.10;47.90;;;;;;5032508;28;20116;-79
2022/02/21 09:51:00;;;;;;;6.18;3.20;;;12.70;48.40;;;;;;5032238;28;20021;-80
2022/02/21 09:53:31;;;;;;;5.70;3.30;;;12.50;48.90;;;;;;5032084;28;20075;-80
2022/02/21 09:55:57;;;;;;;9.73;3.22;;;12.30;49.00;;;;;;5033611;28;20033;-80
2022/02/21 09:58:24;;;;;;;5.28;2.97;;;12.20;49.70;;;;;;5032210;28;20116;-79
2022/02/21 10:00:50;;;;;;;9.40;3.60;;;12.20;49.70;;;;;;5033393;28;20024;-79
2022/02/21 10:03:37;;;;;;;6.43;3.40;;;12.10;49.80;;;;;;5033519;28;20029;-79
2022/02/21 10:06:24;;;;;;;6.03;3.00;;;12.10;49.90;;;;;;5033433;28;20064;-78
2022/02/21 10:08:53;;;;;;;4.63;2.90;;;12.30;49.50;;;;;;5033602;28;20026;-78
2022/02/21 10:11:29;;;;;;;6.20;2.90;;;12.60;49.30;;;;;;5048679;28;20021;-79
2022/02/21 10:14:20;;;;;;;6.75;2.83;;;13.20;48.90;;;;;;5032461;28;20037;-77
2022/02/21 10:16:49;;;;;;;;;;;14.10;46.80;;;;;;5041988;28;20124;-79
2022/02/21 10:19:21;;;;;;;5.32;2.50;;;14.30;45.90;;;;;;5048266;28;19932;-80
2022/02/21 10:22:01;;;;;;;7.03;3.10;;;14.80;46.40;;;;;;5033002;28;20032;-78
2022/02/21 10:24:49;;;;;;;8.55;3.00;;;15.40;44.60;;;;;;5032983;28;20498;-79
2022/02/21 10:27:29;;;;;;;6.78;3.35;;;15.50;45.10;;;;;;5033180;28;20474;-79
2022/02/21 10:30:00;;;;;;;6.60;3.55;;;16.00;43.90;;;;;;5048997;28;20029;-78
2022/02/21 10:32:34;;;;;;;6.05;2.95;;;16.10;44.40;;;;;;5032406;28;20060;-78
2022/02/21 10:35:12;;;;;;;5.80;3.17;;;16.40;43.30;;;;;;5031933;28;20091;-78
2022/02/21 10:37:49;;;;;;;6.03;2.90;;;16.60;42.50;;;;;;5031517;28;20029;-77
2022/02/21 10:40:18;;;;;;;7.45;2.90;;;16.60;42.90;;;;;;5032766;28;20022;-77
2022/02/21 10:43:00;;;;;;;4.50;2.28;;;16.50;42.70;;;;;;5033507;28;20025;-78
2022/02/21 10:45:28;;;;;;;4.22;2.40;;;16.60;42.40;;;;;;5036713;28;20021;-79
2022/02/21 10:48:08;;;;;;;5.25;2.60;;;16.60;41.50;;;;;;5036463;28;20017;-80
2022/02/21 10:50:37;;;;;;;7.20;2.70;;;16.50;41.80;;;;;;5052295;28;20021;-80
2022/02/21 10:53:10;;;;;;;7.60;3.20;;;16.50;41.70;;;;;;5036230;28;20076;-79
2022/02/21 10:55:36;;;;;;;4.95;2.60;;;16.60;41.10;;;;;;5036245;28;20029;-79
2022/02/21 10:58:20;;;;;;;4.53;2.55;;;16.60;42.00;;;;;;5034986;28;20034;-78
2022/02/21 11:00:50;;;;;;;5.00;3.08;;;17.00;42.00;;;;;;5036117;28;20021;-79
2022/02/21 11:03:20;;;;;;;5.88;2.92;;;17.20;41.60;;;;;;5034909;28;20057;-80
2022/02/21 11:05:47;;;;;;;5.90;2.92;;;17.30;41.10;;;;;;5036190;28;20481;-79
2022/02/21 11:08:15;;;;;;;6.28;3.38;;;17.30;40.00;;;;;;5034719;28;20025;-79
2022/02/21 11:10:43;;;;;;;5.68;3.00;;;17.20;40.20;;;;;;5051498;28;20021;-81
2022/02/21 11:13:13;;;;;;;7.75;3.33;;;17.10;40.80;;;;;;5051287;28;20527;-80
2022/02/21 11:15:39;;;;;;;6.68;3.05;;;17.30;40.20;;;;;;5034785;28;20026;-78
2022/02/21 11:18:06;;;;;;;7.15;3.45;;;17.30;40.50;;;;;;5051207;28;20029;-78
2022/02/21 11:20:32;;;;;;;7.15;3.10;;;17.40;40.20;;;;;;5035141;28;20026;-78
2022/02/21 11:22:58;;;;;;;5.05;3.03;;;17.60;39.70;;;;;;5050978;28;20057;-78
2022/02/21 11:25:45;;;;;;;4.50;2.70;;;17.70;40.00;;;;;;5035906;28;20104;-78
2022/02/21 11:28:13;;;;;;;6.40;3.00;;;17.70;39.80;;;;;;5051936;28;20022;-78
2022/02/21 11:30:43;;;;;;;7.78;3.00;;;17.50;40.20;;;;;;5035918;28;20088;-78
2022/02/21 11:33:12;;;;;;;7.80;3.40;;;17.50;39.80;;;;;;5035606;28;20109;-78
2022/02/21 11:36:08;;;;;;;5.75;3.30;;;17.40;40.20;;;;;;5035559;28;20018;-78
2022/02/21 11:38:40;;;;;;;6.60;3.50;;;17.30;41.10;;;;;;5036173;28;20116;-78
2022/02/21 11:41:11;;;;;;;6.50;2.75;;;17.40;40.50;;;;;;5035810;28;20049;-77
2022/02/21 11:43:41;;;;;;;4.68;2.58;;;17.20;40.60;;;;;;5036744;28;20055;-80
2022/02/21 11:46:09;;;;;;;5.95;3.00;;;17.10;40.80;;;;;;5036002;28;20022;-78
2022/02/21 11:49:26;;;;;;;5.40;3.20;;;16.70;41.40;;;;;;5035671;28;20021;-79
2022/02/21 11:51:52;;;;;;;7.72;3.30;;;16.80;41.20;;;;;;5030412;28;20030;-80
2022/02/21 11:54:20;;;;;;;6.70;3.22;;;17.00;41.30;;;;;;5037219;28;20028;-78
2022/02/21 11:56:54;;;;;;;6.88;2.70;;;16.80;41.60;;;;;;5050816;28;20136;-81
2022/02/21 12:00:11;;;;;;;6.13;3.13;;;16.80;41.10;;;;;;5036785;28;20028;-81
2022/02/21 12:03:15;;;;;;;5.65;3.13;;;16.70;41.40;;;;;;5050722;28;20036;-78
2022/02/21 12:05:45;;;;;;;6.20;2.80;;;16.60;41.50;;;;;;5051191;28;20024;-79
2022/02/21 12:08:28;;;;;;;4.60;2.60;;;16.20;42.10;;;;;;5033900;28;20026;-78
2022/02/21 12:11:17;;;;;;;6.68;3.00;;;16.20;42.40;;;;;;5050524;28;20103;-79
2022/02/21 12:13:48;;;;;;;6.38;2.88;;;16.20;42.70;;;;;;5050250;28;20360;-78
2022/02/21 12:16:15;;;;;;;5.20;2.78;;;16.40;42.80;;;;;;5050812;28;20083;-78
2022/02/21 12:18:45;;;;;;;8.25;3.40;;;16.70;42.30;;;;;;5033716;28;20025;-78
2022/02/21 12:21:21;;;;;;;4.80;3.03;;;16.70;41.70;;;;;;5050383;28;20333;-80
2022/02/21 12:23:53;;;;;;;6.10;3.30;;;16.50;41.80;;;;;;5035269;28;20099;-78
2022/02/21 12:26:28;;;;;;;8.50;3.95;;;16.20;42.00;;;;;;5049986;28;20036;-77
2022/02/21 12:29:13;;;;;;;6.93;3.20;;;15.90;42.50;;;;;;5034992;28;20029;-79
2022/02/21 12:31:45;;;;;;;8.68;3.88;;;15.70;42.90;;;;;;5035896;28;20075;-77
2022/02/21 12:34:12;;;;;;;6.45;3.30;;;15.50;43.60;;;;;;5035734;28;20029;-78
2022/02/21 12:36:41;;;;;;;7.65;3.58;;;15.30;44.20;;;;;;5049896;28;20118;-78
2022/02/21 12:39:09;;;;;;;8.88;3.30;;;15.20;44.50;;;;;;5034525;28;20072;-78
2022/02/21 12:41:41;;;;;;;9.65;3.33;;;15.20;44.00;;;;;;5034234;28;20370;-79
2022/02/21 12:44:11;;;;;;;9.93;3.45;;;15.00;44.20;;;;;;5034477;28;20036;-79
2022/02/21 12:46:39;;;;;;;7.13;2.83;;;15.00;44.00;;;;;;5032988;28;20017;-79
2022/02/21 12:49:24;;;;;;;5.90;3.28;;;14.80;44.50;;;;;;5032966;28;20021;-79